Ontario, CA

9:10 PM PST on February 13, 2016 (GMT -0800)
Ontario International | | Change Station
CLOSE
Current Station
Airport
Location: Ontario,
Elevation: 942 ft
Nearby Weather Stations

Elev 942 ft 34.06 °N, 117.60 °W | Updated 17 minutes ago

Clear
Clear
62 °F
Feels Like 62 °F
N
4
Wind Variable Wind from NNW

Today
High -- | Low -- °F
--% Chance of Precip.
Yesterday
High -- | Low -- °F
Precip. -- in
Pressure 30.04 in
Visibility 6.0 miles
Clouds Few 20000 ft
Dew Point 45 °F
Humidity 53%
Rainfall 0.00 in
Snow Depth Not available.
6:37 AM 5:32 PM
Waxing Crescent, 38% visible
METAR KONT 140453Z 33003KT 6SM HZ FEW200 17/07 A3006 RMK AO2 SLP171 T01670072
Pressure 30.04 in
Visibility 6.0 miles
Clouds Few 20000 ft
Dew Point 45 °F
Humidity 53%
Rainfall 0.00 in
Snow Depth Not available.
6:37 AM 5:32 PM
Waxing Crescent, 38% visible
METAR KONT 140453Z 33003KT 6SM HZ FEW200 17/07 A3006 RMK AO2 SLP171 T01670072

10-Day Weather Forecast

Almanac

Astronomy

Feb. 13, 2016 Rise Set
Actual Time
Civil Twilight
Nautical Twilight
Astronomical Twilight
Moon
Length of Visible Light
Length of Day
Tomorrow will be .
, % of the Moon is Illuminated

Today's Extremes

State Highs State Lows

Community

WunderPhotos

Upload Photos

1,892,748 photos uploaded!

WunderBlog® & News

Nearby

Air Quality

  Air Quality AQ Index Pollutant
Not available.

Snow Depth

Station Depth Elevation

Earthquake Activity

City Distance Mag. Time & Date
Minimum magnitude displayed is 2.5.

Coastal Water Temperatures

Place Temperature

Stations

Nearby Weather Stations

Station Location Temp. Windchill Dew Point Humidity Wind Precip. Elev Updated Type
                   

Watches & Warnings

There are currently no watches in effect.